Time;durP1;ratioP1;P1;durP2;ratioP2;P2;SDS_P1;SDS_P2;PMS_P1;PMS_P2;Temp;Humidity;BMP_temperature;BMP_pressure;BME280_temperature;BME280_humidity;BME280_pressure;Samples;Min_cycle;Max_cycle;Signal;HPM_P1;HPM_P2
2021/08/24 00:01:45;;;;;;;2.05;1.00;;;;;;;;;;4990843;28;20026;-73
2021/08/24 00:04:11;;;;;;;1.45;0.90;;;;;;;;;;4990780;28;20034;-73
2021/08/24 00:06:37;;;;;;;3.20;1.10;;;;;;;;;;4982392;28;20037;-72
2021/08/24 00:09:04;;;;;;;0.90;0.70;;;;;;;;;;4988413;28;20035;-72
2021/08/24 00:11:33;;;;;;;1.58;1.17;;;;;;;;;;4991582;28;20022;-73
2021/08/24 00:13:59;;;;;;;1.52;0.90;;;;;;;;;;4991318;28;20480;-72
2021/08/24 00:16:25;;;;;;;5.15;1.75;;;;;;;;;;4990964;28;20037;-72
2021/08/24 00:18:51;;;;;;;3.72;1.08;;;;;;;;;;4991659;28;20022;-72
2021/08/24 00:21:17;;;;;;;2.67;1.13;;;;;;;;;;4991331;28;20109;-72
2021/08/24 00:23:43;;;;;;;4.43;1.23;;;;;;;;;;4997250;28;20507;-72
2021/08/24 00:26:09;;;;;;;1.73;1.00;;;;;;;;;;4987420;28;20041;-72
2021/08/24 00:28:35;;;;;;;4.45;1.00;;;;;;;;;;4991964;28;20804;-72
2021/08/24 00:31:01;;;;;;;2.55;1.35;;;;;;;;;;4996093;28;20137;-72
2021/08/24 00:33:27;;;;;;;2.50;1.30;;;;;;;;;;4980674;28;20113;-72
2021/08/24 00:35:53;;;;;;;2.58;1.15;;;;;;;;;;4987815;28;20054;-72
2021/08/24 00:38:21;;;;;;;1.75;0.90;;;;;;;;;;4993350;28;20049;-72
2021/08/24 00:40:50;;;;;;;1.73;1.00;;;;;;;;;;4991925;28;20098;-72
2021/08/24 00:43:16;;;;;;;4.47;1.23;;;;;;;;;;4987892;28;20026;-73
2021/08/24 00:45:43;;;;;;;4.13;1.05;;;;;;;;;;4990888;28;20121;-72
2021/08/24 00:48:09;;;;;;;2.80;1.30;;;;;;;;;;4990260;28;20034;-72
2021/08/24 00:50:41;;;;;;;3.00;1.20;;;;;;;;;;4998531;28;20488;-72
2021/08/24 00:53:15;;;;;;;3.22;1.05;;;;;;;;;;4991180;28;20038;-72
2021/08/24 00:55:42;;;;;;;1.80;1.20;;;;;;;;;;4987441;28;20062;-72
2021/08/24 00:58:10;;;;;;;3.88;0.85;;;;;;;;;;4989655;28;20496;-73
2021/08/24 01:00:36;;;;;;;1.42;1.10;;;;;;;;;;4992915;28;20033;-72
2021/08/24 01:03:20;;;;;;;3.15;1.17;;;;;;;;;;4986965;28;20058;-72
2021/08/24 01:05:47;;;;;;;2.83;1.00;;;;;;;;;;4991029;28;20436;-72
2021/08/24 01:08:31;;;;;;;0.93;0.80;;;;;;;;;;4983303;28;20070;-72
2021/08/24 01:11:03;;;;;;;1.38;0.95;;;;;;;;;;4988913;28;20065;-72
2021/08/24 01:13:29;;;;;;;;;;;;;;;;;;4990967;28;20034;-72
2021/08/24 01:16:01;;;;;;;4.28;1.42;;;;;;;;;;4988608;28;19910;-72
2021/08/24 01:18:32;;;;;;;5.22;1.27;;;;;;;;;;4990027;28;20022;-72
2021/08/24 01:21:13;;;;;;;3.03;1.30;;;;;;;;;;4990523;28;20052;-72
2021/08/24 01:23:48;;;;;;;3.63;1.20;;;;;;;;;;4990137;28;20547;-72
2021/08/24 01:26:18;;;;;;;3.10;1.30;;;;;;;;;;4986491;28;20049;-72
2021/08/24 01:29:02;;;;;;;4.00;1.42;;;;;;;;;;4992178;28;20030;-72
2021/08/24 01:31:53;;;;;;;3.45;1.00;;;;;;;;;;4990727;28;20393;-72
2021/08/24 01:34:38;;;;;;;4.68;0.98;;;;;;;;;;4985205;28;20504;-72
2021/08/24 01:37:05;;;;;;;2.28;1.10;;;;;;;;;;4989397;28;20041;-72
2021/08/24 01:39:40;;;;;;;2.70;1.02;;;;;;;;;;4984078;28;20137;-72
2021/08/24 01:42:14;;;;;;;5.63;1.40;;;;;;;;;;4988628;28;20030;-72
2021/08/24 01:44:59;;;;;;;4.75;1.27;;;;;;;;;;4988440;28;20444;-72
2021/08/24 01:47:43;;;;;;;3.08;1.25;;;;;;;;;;4992501;28;20046;-72
2021/08/24 01:50:09;;;;;;;1.52;1.02;;;;;;;;;;4989495;28;20388;-72
2021/08/24 01:52:38;;;;;;;2.75;1.17;;;;;;;;;;4985942;28;20053;-72
2021/08/24 01:55:12;;;;;;;2.28;1.05;;;;;;;;;;4994617;28;20030;-72
2021/08/24 01:57:43;;;;;;;3.22;1.35;;;;;;;;;;4987084;28;20023;-72
2021/08/24 02:00:12;;;;;;;1.70;1.30;;;;;;;;;;4986957;28;20738;-72
2021/08/24 02:02:40;;;;;;;4.72;1.40;;;;;;;;;;4987971;28;20045;-72
2021/08/24 02:05:09;;;;;;;4.05;1.25;;;;;;;;;;4983738;28;20030;-72
2021/08/24 02:07:35;;;;;;;4.88;1.27;;;;;;;;;;4992903;28;20588;-72
2021/08/24 02:10:16;;;;;;;3.25;1.33;;;;;;;;;;4987780;28;20041;-72
2021/08/24 02:12:43;;;;;;;3.55;1.15;;;;;;;;;;4991866;28;20153;-73
2021/08/24 02:15:09;;;;;;;3.25;1.20;;;;;;;;;;4989335;28;20062;-72
2021/08/24 02:17:35;;;;;;;1.58;1.10;;;;;;;;;;4988947;28;20026;-72
2021/08/24 02:20:07;;;;;;;2.45;1.15;;;;;;;;;;4979489;28;20085;-72
2021/08/24 02:22:33;;;;;;;;;;;;;;;;;;4981780;28;20125;-72
2021/08/24 02:25:16;;;;;;;2.47;1.20;;;;;;;;;;4984226;28;20005;-70
2021/08/24 02:28:02;;;;;;;3.00;1.40;;;;;;;;;;4983261;28;20092;-70
2021/08/24 02:30:30;;;;;;;1.85;1.27;;;;;;;;;;4986113;28;20058;-70
2021/08/24 02:32:57;;;;;;;2.67;1.10;;;;;;;;;;4996894;28;20057;-70
2021/08/24 02:35:26;;;;;;;4.28;1.02;;;;;;;;;;4993063;28;20026;-70
2021/08/24 02:37:59;;;;;;;2.65;1.15;;;;;;;;;;4989606;28;20031;-70
2021/08/24 02:40:38;;;;;;;2.17;1.20;;;;;;;;;;4993015;28;20480;-70
2021/08/24 02:43:13;;;;;;;2.50;1.08;;;;;;;;;;4984596;28;20041;-70
2021/08/24 02:46:05;;;;;;;1.60;1.00;;;;;;;;;;4986851;28;20023;-70
2021/08/24 02:48:33;;;;;;;3.45;1.33;;;;;;;;;;4990428;28;20040;-71
2021/08/24 02:50:59;;;;;;;5.00;1.27;;;;;;;;;;4990185;28;20065;-70
2021/08/24 02:53:26;;;;;;;2.17;1.27;;;;;;;;;;4987855;28;20061;-70
2021/08/24 02:55:52;;;;;;;4.10;1.65;;;;;;;;;;4987923;28;20121;-70
2021/08/24 02:58:18;;;;;;;3.17;1.05;;;;;;;;;;4990585;28;20029;-70
2021/08/24 03:00:46;;;;;;;2.15;1.00;;;;;;;;;;4989964;28;20669;-70
2021/08/24 03:03:12;;;;;;;2.13;1.20;;;;;;;;;;4988073;28;20053;-71
2021/08/24 03:05:38;;;;;;;3.03;1.30;;;;;;;;;;4990080;28;20153;-71
2021/08/24 03:08:04;;;;;;;2.53;1.13;;;;;;;;;;4984754;28;20117;-73
2021/08/24 03:10:31;;;;;;;4.35;1.40;;;;;;;;;;4987705;28;20030;-70
2021/08/24 03:13:04;;;;;;;3.63;1.38;;;;;;;;;;4989118;28;20038;-70
2021/08/24 03:15:39;;;;;;;2.97;1.35;;;;;;;;;;4980144;28;20031;-71
2021/08/24 03:18:11;;;;;;;3.28;1.30;;;;;;;;;;4984232;28;20030;-72
2021/08/24 03:20:40;;;;;;;3.55;1.20;;;;;;;;;;4984856;28;20547;-70
2021/08/24 03:23:07;;;;;;;3.63;1.55;;;;;;;;;;4988773;28;20045;-70
2021/08/24 03:25:34;;;;;;;3.10;1.50;;;;;;;;;;4989367;28;20126;-71
2021/08/24 03:28:00;;;;;;;2.22;1.40;;;;;;;;;;4989581;28;20034;-71
2021/08/24 03:30:36;;;;;;;1.48;1.02;;;;;;;;;;4989553;28;20038;-70
2021/08/24 03:33:02;;;;;;;2.63;1.40;;;;;;;;;;4989030;28;20046;-70
2021/08/24 03:35:28;;;;;;;4.53;1.42;;;;;;;;;;4987752;28;20015;-71
2021/08/24 03:37:53;;;;;;;2.85;1.50;;;;;;;;;;4985886;28;20022;-70
2021/08/24 03:40:19;;;;;;;2.45;1.27;;;;;;;;;;4986634;28;20160;-70
2021/08/24 03:42:45;;;;;;;4.80;1.40;;;;;;;;;;4991059;28;20033;-70
2021/08/24 03:45:12;;;;;;;2.60;1.40;;;;;;;;;;4988453;28;20027;-70
2021/08/24 03:47:38;;;;;;;2.80;1.05;;;;;;;;;;4988989;28;20125;-70
2021/08/24 03:50:05;;;;;;;3.00;1.40;;;;;;;;;;4985436;28;20125;-70
2021/08/24 03:52:31;;;;;;;3.38;0.90;;;;;;;;;;4978829;28;20069;-70
2021/08/24 03:54:57;;;;;;;1.80;1.20;;;;;;;;;;4988093;28;20047;-70
2021/08/24 03:57:22;;;;;;;5.45;1.25;;;;;;;;;;4987895;28;20018;-71
2021/08/24 03:59:48;;;;;;;1.83;1.20;;;;;;;;;;4979489;28;20019;-70
2021/08/24 04:02:17;;;;;;;3.80;1.50;;;;;;;;;;4990340;28;20453;-70
2021/08/24 04:04:43;;;;;;;2.38;1.10;;;;;;;;;;4985493;28;20606;-70
2021/08/24 04:07:09;;;;;;;2.95;1.30;;;;;;;;;;4990856;28;20481;-71
2021/08/24 04:09:35;;;;;;;4.43;1.30;;;;;;;;;;4988932;28;20034;-71
2021/08/24 04:12:01;;;;;;;3.78;1.50;;;;;;;;;;4991018;28;20041;-70
2021/08/24 04:14:27;;;;;;;4.38;1.50;;;;;;;;;;4989511;28;20509;-71
2021/08/24 04:16:53;;;;;;;4.50;1.33;;;;;;;;;;4992468;28;20029;-72
2021/08/24 04:19:23;;;;;;;3.47;1.30;;;;;;;;;;4990789;28;20633;-70
2021/08/24 04:21:49;;;;;;;2.67;1.13;;;;;;;;;;4990920;28;20476;-71
2021/08/24 04:24:15;;;;;;;3.05;1.42;;;;;;;;;;5000466;28;20506;-70
2021/08/24 04:26:41;;;;;;;4.57;1.50;;;;;;;;;;4989652;28;20034;-71
2021/08/24 04:29:07;;;;;;;1.80;1.27;;;;;;;;;;4992003;28;20030;-70
2021/08/24 04:31:34;;;;;;;2.20;1.33;;;;;;;;;;4992471;28;20388;-70
2021/08/24 04:34:00;;;;;;;2.28;1.30;;;;;;;;;;4990583;28;20484;-73
2021/08/24 04:36:26;;;;;;;3.72;1.40;;;;;;;;;;4988305;28;20046;-74
2021/08/24 04:38:52;;;;;;;2.42;1.08;;;;;;;;;;4990114;28;20026;-74
2021/08/24 04:41:18;;;;;;;2.95;1.60;;;;;;;;;;4989401;28;20053;-73
2021/08/24 04:43:44;;;;;;;2.00;1.30;;;;;;;;;;4991779;28;20034;-73
2021/08/24 04:46:10;;;;;;;3.80;1.38;;;;;;;;;;4981875;28;20034;-73
2021/08/24 04:48:36;;;;;;;6.50;1.63;;;;;;;;;;4984383;28;20031;-74
2021/08/24 04:51:01;;;;;;;2.78;1.10;;;;;;;;;;4990195;28;20038;-72
2021/08/24 04:53:29;;;;;;;3.33;1.45;;;;;;;;;;4989551;28;20540;-74
2021/08/24 04:55:55;;;;;;;1.80;1.48;;;;;;;;;;4988949;28;20479;-70
2021/08/24 04:58:21;;;;;;;2.35;1.70;;;;;;;;;;4995357;28;20080;-71
2021/08/24 05:00:47;;;;;;;5.05;1.48;;;;;;;;;;4989772;28;20034;-72
2021/08/24 05:03:13;;;;;;;3.25;1.50;;;;;;;;;;4989741;28;20112;-71
2021/08/24 05:05:39;;;;;;;5.05;1.80;;;;;;;;;;4983561;28;20129;-72
2021/08/24 05:08:06;;;;;;;5.40;1.60;;;;;;;;;;4988475;28;20023;-72
2021/08/24 05:10:32;;;;;;;3.50;1.60;;;;;;;;;;4988206;28;20026;-71
2021/08/24 05:13:00;;;;;;;5.00;1.65;;;;;;;;;;4989365;28;20152;-72
2021/08/24 05:15:26;;;;;;;3.75;1.50;;;;;;;;;;4988145;28;20465;-72
2021/08/24 05:17:52;;;;;;;2.85;1.20;;;;;;;;;;4986106;28;20042;-73
2021/08/24 05:20:18;;;;;;;3.00;1.58;;;;;;;;;;4988834;28;20184;-72
2021/08/24 05:22:45;;;;;;;3.42;1.27;;;;;;;;;;4987404;28;20067;-72
2021/08/24 05:25:47;;;;;;;2.20;1.40;;;;;;;;;;4988965;28;20048;-72
2021/08/24 05:28:13;;;;;;;4.05;1.60;;;;;;;;;;4964403;28;20035;-72
2021/08/24 05:30:39;;;;;;;3.80;1.70;;;;;;;;;;4996786;28;20033;-73
2021/08/24 05:33:05;;;;;;;1.98;1.30;;;;;;;;;;4991897;28;20030;-73
2021/08/24 05:35:31;;;;;;;3.45;1.40;;;;;;;;;;4993264;28;20030;-73
2021/08/24 05:37:57;;;;;;;2.50;1.30;;;;;;;;;;4982068;28;21134;-73
2021/08/24 05:40:23;;;;;;;2.72;1.13;;;;;;;;;;4988332;28;20456;-72
2021/08/24 05:42:49;;;;;;;3.50;1.33;;;;;;;;;;4990152;28;20579;-73
2021/08/24 05:45:15;;;;;;;2.88;1.40;;;;;;;;;;4988553;28;20034;-72
2021/08/24 05:47:41;;;;;;;3.63;1.13;;;;;;;;;;4989162;28;20034;-72
2021/08/24 05:50:07;;;;;;;4.22;1.60;;;;;;;;;;4990339;28;20297;-73
2021/08/24 05:52:33;;;;;;;3.00;1.40;;;;;;;;;;4982957;28;20583;-72
2021/08/24 05:54:59;;;;;;;3.30;1.42;;;;;;;;;;4989903;28;20109;-72
2021/08/24 05:57:25;;;;;;;3.80;1.33;;;;;;;;;;4989178;28;20026;-72
2021/08/24 05:59:51;;;;;;;3.33;1.10;;;;;;;;;;4989833;28;20428;-72
2021/08/24 06:02:17;;;;;;;2.47;1.42;;;;;;;;;;4989803;28;20033;-72
2021/08/24 06:04:43;;;;;;;3.58;1.27;;;;;;;;;;4988961;28;20141;-72
2021/08/24 06:07:09;;;;;;;1.83;1.08;;;;;;;;;;4990041;28;20029;-72
2021/08/24 06:09:34;;;;;;;4.10;1.10;;;;;;;;;;4984492;28;20030;-72
2021/08/24 06:12:01;;;;;;;5.85;1.60;;;;;;;;;;4989102;28;20030;-72
2021/08/24 06:14:27;;;;;;;3.28;0.85;;;;;;;;;;4987800;28;20124;-72
2021/08/24 06:16:57;;;;;;;1.88;1.35;;;;;;;;;;4989609;28;20252;-72
2021/08/24 06:19:24;;;;;;;2.22;1.10;;;;;;;;;;4988232;28;20042;-72
2021/08/24 06:21:50;;;;;;;3.20;1.08;;;;;;;;;;4989326;28;20025;-72
2021/08/24 06:24:16;;;;;;;2.70;1.25;;;;;;;;;;4987469;28;20031;-72
2021/08/24 06:26:42;;;;;;;5.18;1.20;;;;;;;;;;4976269;28;20030;-72
2021/08/24 06:29:08;;;;;;;2.50;1.20;;;;;;;;;;4984215;28;20026;-72
2021/08/24 06:31:39;;;;;;;4.32;1.65;;;;;;;;;;5001138;28;20063;-73
2021/08/24 06:34:07;;;;;;;1.10;0.90;;;;;;;;;;4987438;28;20030;-72
2021/08/24 06:36:32;;;;;;;4.18;1.55;;;;;;;;;;4985208;28;20059;-72
2021/08/24 06:38:59;;;;;;;1.20;0.93;;;;;;;;;;4988235;28;20112;-72
2021/08/24 06:41:24;;;;;;;1.10;0.93;;;;;;;;;;4987870;28;20022;-72
2021/08/24 06:43:51;;;;;;;2.17;1.17;;;;;;;;;;4989057;28;20037;-73
2021/08/24 06:46:17;;;;;;;1.60;0.85;;;;;;;;;;4990544;28;20030;-72
2021/08/24 06:48:43;;;;;;;2.42;0.93;;;;;;;;;;4988865;28;20444;-72
2021/08/24 06:51:09;;;;;;;1.00;0.75;;;;;;;;;;4988127;28;20022;-73
2021/08/24 06:53:35;;;;;;;1.48;1.00;;;;;;;;;;4984900;28;20034;-73
2021/08/24 06:56:02;;;;;;;4.68;1.15;;;;;;;;;;4989115;28;20023;-73
2021/08/24 06:58:28;;;;;;;2.30;1.02;;;;;;;;;;4985734;28;20054;-73
2021/08/24 07:00:54;;;;;;;1.73;1.13;;;;;;;;;;4980147;28;22149;-72
2021/08/24 07:03:20;;;;;;;1.67;0.90;;;;;;;;;;4991149;28;20476;-73
2021/08/24 07:05:51;;;;;;;1.05;0.80;;;;;;;;;;4985381;28;20396;-72
2021/08/24 07:08:18;;;;;;;1.92;1.10;;;;;;;;;;4988660;28;20026;-72
2021/08/24 07:10:45;;;;;;;4.18;1.35;;;;;;;;;;4989156;28;20488;-72
2021/08/24 07:13:11;;;;;;;1.30;0.90;;;;;;;;;;4990025;28;20117;-73
2021/08/24 07:15:38;;;;;;;0.93;0.80;;;;;;;;;;4988308;28;20121;-73
2021/08/24 07:18:04;;;;;;;1.48;1.00;;;;;;;;;;4986461;28;20408;-73
2021/08/24 07:20:30;;;;;;;2.30;0.93;;;;;;;;;;4987732;28;20022;-72
2021/08/24 07:22:57;;;;;;;5.22;1.05;;;;;;;;;;4986376;28;20103;-72
2021/08/24 07:25:25;;;;;;;1.33;0.82;;;;;;;;;;4984324;28;20124;-73
2021/08/24 07:27:51;;;;;;;4.40;1.15;;;;;;;;;;4987985;28;20026;-73
2021/08/24 07:30:17;;;;;;;1.98;1.05;;;;;;;;;;4991392;28;20037;-72
2021/08/24 07:32:44;;;;;;;2.85;0.85;;;;;;;;;;4973321;28;20473;-72
2021/08/24 07:35:10;;;;;;;1.08;0.98;;;;;;;;;;4981535;28;20430;-72
2021/08/24 07:37:36;;;;;;;2.22;1.20;;;;;;;;;;4986556;28;20029;-72
2021/08/24 07:40:03;;;;;;;5.60;1.00;;;;;;;;;;4991749;28;20022;-72
2021/08/24 07:42:29;;;;;;;1.73;0.90;;;;;;;;;;4995815;28;20095;-71
2021/08/24 07:44:55;;;;;;;4.25;1.05;;;;;;;;;;4991931;28;20480;-72
2021/08/24 07:47:21;;;;;;;1.35;0.80;;;;;;;;;;4989942;28;20559;-72
2021/08/24 07:49:47;;;;;;;2.22;1.10;;;;;;;;;;4991910;28;20026;-72
2021/08/24 07:52:13;;;;;;;1.95;1.38;;;;;;;;;;4987312;28;20117;-71
2021/08/24 07:54:39;;;;;;;3.70;2.38;;;;;;;;;;4998696;28;20435;-72
2021/08/24 07:57:05;;;;;;;2.90;1.90;;;;;;;;;;4995781;28;20041;-72
2021/08/24 07:59:32;;;;;;;2.88;1.60;;;;;;;;;;4992024;28;20018;-72
2021/08/24 08:01:58;;;;;;;2.50;1.20;;;;;;;;;;4992612;28;20026;-72
2021/08/24 08:04:25;;;;;;;1.55;1.10;;;;;;;;;;4987634;28;20073;-72
2021/08/24 08:06:51;;;;;;;1.88;1.30;;;;;;;;;;4991956;28;20034;-72
2021/08/24 08:09:19;;;;;;;1.58;1.13;;;;;;;;;;4972638;28;20420;-72
2021/08/24 08:11:45;;;;;;;2.60;1.00;;;;;;;;;;4994461;28;20030;-72
2021/08/24 08:14:12;;;;;;;2.50;1.00;;;;;;;;;;4992278;28;20498;-72
2021/08/24 08:16:38;;;;;;;0.77;0.75;;;;;;;;;;4985612;28;20073;-72
2021/08/24 08:19:04;;;;;;;3.17;1.60;;;;;;;;;;4990719;28;20026;-73
2021/08/24 08:21:32;;;;;;;1.98;0.98;;;;;;;;;;4979216;28;20026;-72
2021/08/24 08:24:00;;;;;;;2.50;1.17;;;;;;;;;;4982234;28;20042;-73
2021/08/24 08:26:26;;;;;;;1.70;0.90;;;;;;;;;;4989678;28;20033;-72
2021/08/24 08:28:52;;;;;;;3.13;1.10;;;;;;;;;;4991558;28;20038;-73
2021/08/24 08:31:18;;;;;;;1.08;0.90;;;;;;;;;;4995394;28;20034;-72
2021/08/24 08:33:44;;;;;;;6.75;1.20;;;;;;;;;;4988549;28;20018;-72
2021/08/24 08:36:10;;;;;;;2.13;1.45;;;;;;;;;;4990555;28;20369;-72
2021/08/24 08:38:36;;;;;;;2.28;0.95;;;;;;;;;;4986141;28;20540;-71
2021/08/24 08:41:05;;;;;;;2.03;1.52;;;;;;;;;;4987994;28;20072;-72
2021/08/24 08:43:45;;;;;;;2.78;1.58;;;;;;;;;;4991352;28;20085;-72
2021/08/24 08:46:17;;;;;;;1.90;1.15;;;;;;;;;;4991213;28;20037;-72
2021/08/24 08:48:49;;;;;;;3.10;1.92;;;;;;;;;;4991159;28;20500;-71
2021/08/24 08:51:26;;;;;;;2.10;1.10;;;;;;;;;;4990840;28;20022;-72
2021/08/24 08:54:09;;;;;;;2.22;1.08;;;;;;;;;;4992325;28;20459;-73
2021/08/24 08:56:53;;;;;;;3.95;1.40;;;;;;;;;;4983648;28;20027;-72
2021/08/24 08:59:28;;;;;;;1.58;1.05;;;;;;;;;;4984572;28;20033;-73
2021/08/24 09:02:09;;;;;;;1.95;1.27;;;;;;;;;;4986483;28;20032;-72
2021/08/24 09:04:37;;;;;;;;;;;;;;;;;;4990880;28;20061;-72
2021/08/24 09:07:06;;;;;;;3.05;1.67;;;;;;;;;;4990799;28;19910;-73
2021/08/24 09:09:33;;;;;;;4.47;2.60;;;;;;;;;;4989819;28;20050;-72
2021/08/24 09:12:00;;;;;;;4.00;2.20;;;;;;;;;;4976265;28;20515;-72
2021/08/24 09:14:33;;;;;;;2.78;1.60;;;;;;;;;;4983496;28;20026;-72
2021/08/24 09:17:21;;;;;;;1.35;1.02;;;;;;;;;;4990808;28;20439;-72
2021/08/24 09:19:58;;;;;;;4.40;1.42;;;;;;;;;;4987566;28;20076;-72
2021/08/24 09:22:24;;;;;;;1.48;0.90;;;;;;;;;;4984490;28;20137;-72
2021/08/24 09:24:50;;;;;;;2.85;1.13;;;;;;;;;;4987524;28;20380;-72
2021/08/24 09:27:22;;;;;;;4.25;1.50;;;;;;;;;;4984157;28;20034;-72
2021/08/24 09:29:49;;;;;;;3.40;2.10;;;;;;;;;;4994440;28;20116;-73
2021/08/24 09:32:23;;;;;;;1.58;1.23;;;;;;;;;;4994132;28;20023;-72
2021/08/24 09:34:51;;;;;;;4.75;1.50;;;;;;;;;;4974791;28;20030;-73
2021/08/24 09:37:19;;;;;;;1.85;1.35;;;;;;;;;;4990693;28;20019;-72
2021/08/24 09:39:48;;;;;;;1.85;1.13;;;;;;;;;;4988983;28;20026;-72
2021/08/24 09:42:14;;;;;;;2.88;1.40;;;;;;;;;;4980986;28;20106;-73
2021/08/24 09:44:40;;;;;;;1.70;1.30;;;;;;;;;;4986989;28;20030;-72
2021/08/24 09:47:27;;;;;;;3.58;1.33;;;;;;;;;;4988500;28;20033;-73
2021/08/24 09:49:58;;;;;;;1.60;1.20;;;;;;;;;;4989801;28;20042;-73
2021/08/24 09:52:26;;;;;;;3.88;1.30;;;;;;;;;;4989849;28;20057;-72
2021/08/24 09:54:54;;;;;;;4.75;2.40;;;;;;;;;;4985935;28;20036;-73
2021/08/24 09:57:28;;;;;;;3.30;2.38;;;;;;;;;;4989607;28;20439;-72
2021/08/24 10:00:12;;;;;;;2.55;1.30;;;;;;;;;;4989163;28;20440;-72
2021/08/24 10:02:40;;;;;;;4.43;1.25;;;;;;;;;;4989853;28;20034;-72
2021/08/24 10:05:07;;;;;;;3.20;1.50;;;;;;;;;;4979265;28;20875;-72
2021/08/24 10:07:35;;;;;;;2.65;1.20;;;;;;;;;;4989927;28;20491;-73
2021/08/24 10:10:01;;;;;;;2.42;1.38;;;;;;;;;;4988069;28;20451;-73
2021/08/24 10:12:29;;;;;;;1.42;1.10;;;;;;;;;;4989683;28;20105;-73
2021/08/24 10:14:56;;;;;;;2.75;1.30;;;;;;;;;;4989482;28;20137;-72
2021/08/24 10:17:25;;;;;;;2.45;1.50;;;;;;;;;;4989262;28;20077;-73
2021/08/24 10:19:52;;;;;;;2.83;1.35;;;;;;;;;;4989558;28;20054;-72
2021/08/24 10:22:29;;;;;;;2.63;1.50;;;;;;;;;;4989469;28;20034;-72
2021/08/24 10:24:58;;;;;;;4.03;1.67;;;;;;;;;;4978820;28;20031;-73
2021/08/24 10:27:28;;;;;;;4.03;1.50;;;;;;;;;;4988329;28;20035;-72
2021/08/24 10:29:59;;;;;;;3.00;1.33;;;;;;;;;;4991436;28;20117;-73
2021/08/24 10:32:28;;;;;;;1.90;1.42;;;;;;;;;;4982525;28;20038;-73
2021/08/24 10:34:54;;;;;;;1.90;1.60;;;;;;;;;;4989160;28;20041;-72
2021/08/24 10:37:26;;;;;;;2.55;1.25;;;;;;;;;;4989442;28;20022;-72
2021/08/24 10:40:07;;;;;;;4.35;2.17;;;;;;;;;;4986452;28;20042;-73
2021/08/24 10:42:33;;;;;;;5.90;2.05;;;;;;;;;;4991895;28;20161;-72
2021/08/24 10:45:01;;;;;;;3.28;1.65;;;;;;;;;;4988921;28;20058;-72
2021/08/24 10:47:29;;;;;;;1.73;1.38;;;;;;;;;;4986156;28;20074;-73
2021/08/24 10:49:56;;;;;;;2.13;1.33;;;;;;;;;;4969903;28;20030;-72
2021/08/24 10:52:32;;;;;;;1.85;1.17;;;;;;;;;;4987938;28;20030;-72
2021/08/24 10:55:17;;;;;;;2.22;1.33;;;;;;;;;;4987084;28;20034;-73
2021/08/24 10:57:52;;;;;;;1.90;1.30;;;;;;;;;;4976994;28;20060;-73
2021/08/24 11:00:38;;;;;;;2.58;1.52;;;;;;;;;;4988510;28;20050;-73
2021/08/24 11:03:22;;;;;;;3.95;1.67;;;;;;;;;;4988062;28;20177;-73
2021/08/24 11:05:50;;;;;;;2.65;1.58;;;;;;;;;;4988794;28;20094;-74
2021/08/24 11:08:18;;;;;;;3.72;1.60;;;;;;;;;;4987997;28;20388;-72
2021/08/24 11:11:02;;;;;;;2.17;1.40;;;;;;;;;;4982059;28;20022;-72
2021/08/24 11:13:33;;;;;;;2.55;1.60;;;;;;;;;;4982418;28;20068;-72
2021/08/24 11:16:11;;;;;;;2.50;1.40;;;;;;;;;;4979811;28;20033;-75
2021/08/24 11:18:40;;;;;;;5.97;1.65;;;;;;;;;;4988379;28;20034;-74
2021/08/24 11:21:17;;;;;;;3.85;1.65;;;;;;;;;;4987494;28;20030;-74
2021/08/24 11:23:50;;;;;;;2.92;1.75;;;;;;;;;;4988501;28;20045;-74
2021/08/24 11:26:20;;;;;;;2.45;1.50;;;;;;;;;;4987183;28;20687;-75
2021/08/24 11:28:55;;;;;;;3.20;1.80;;;;;;;;;;4992541;28;20504;-75
2021/08/24 11:31:24;;;;;;;3.65;2.20;;;;;;;;;;4989166;28;20023;-75
2021/08/24 11:34:09;;;;;;;3.90;2.45;;;;;;;;;;4992191;28;20484;-75
2021/08/24 11:36:42;;;;;;;2.85;1.90;;;;;;;;;;4992959;28;20068;-74
2021/08/24 11:39:16;;;;;;;5.38;2.60;;;;;;;;;;5004905;28;20465;-74
2021/08/24 11:41:45;;;;;;;3.83;2.45;;;;;;;;;;4986254;28;20113;-74
2021/08/24 11:44:18;;;;;;;3.53;2.20;;;;;;;;;;4991842;28;20073;-75
2021/08/24 11:46:48;;;;;;;2.95;2.08;;;;;;;;;;4989679;28;20101;-74
2021/08/24 11:49:19;;;;;;;3.17;2.20;;;;;;;;;;4991923;28;20125;-75
2021/08/24 11:51:50;;;;;;;6.93;2.08;;;;;;;;;;4998639;28;20053;-72
2021/08/24 11:54:18;;;;;;;3.60;1.80;;;;;;;;;;4995746;28;20122;-73
2021/08/24 11:59:54;;;;;;;3.50;2.10;;;;;;;;;;4985649;28;20073;-72
2021/08/24 12:02:25;;;;;;;4.43;2.33;;;;;;;;;;4985153;28;20027;-73
2021/08/24 12:04:52;;;;;;;5.10;2.65;;;;;;;;;;4988057;28;20432;-73
2021/08/24 12:07:33;;;;;;;3.15;2.13;;;;;;;;;;4990041;28;20030;-72
2021/08/24 12:10:00;;;;;;;6.43;1.88;;;;;;;;;;4990959;28;20030;-73
2021/08/24 12:13:04;;;;;;;4.78;2.25;;;;;;;;;;4991594;28;20105;-76
2021/08/24 12:15:32;;;;;;;3.53;2.15;;;;;;;;;;4897038;29;20129;-77
2021/08/24 12:18:06;;;;;;;4.40;2.63;;;;;;;;;;4906728;29;20509;-73
2021/08/24 12:20:36;;;;;;;10.73;5.30;;;;;;;;;;4985398;28;20042;-72
2021/08/24 12:23:03;;;;;;;4.97;2.83;;;;;;;;;;4979202;28;20034;-74
2021/08/24 12:25:32;;;;;;;3.75;2.20;;;;;;;;;;4986049;28;20034;-73
2021/08/24 12:28:03;;;;;;;4.63;2.58;;;;;;;;;;4984844;28;20038;-74
2021/08/24 12:30:34;;;;;;;4.72;2.70;;;;;;;;;;4988003;28;20035;-74
2021/08/24 12:33:04;;;;;;;4.25;2.40;;;;;;;;;;4986664;28;20042;-72
2021/08/24 12:35:30;;;;;;;3.80;2.65;;;;;;;;;;4986775;28;20597;-72
2021/08/24 12:37:59;;;;;;;3.47;2.00;;;;;;;;;;4979387;28;20023;-74
2021/08/24 12:40:36;;;;;;;3.00;2.10;;;;;;;;;;4985781;28;20033;-73
2021/08/24 12:43:02;;;;;;;7.22;2.28;;;;;;;;;;4983227;28;20042;-73
2021/08/24 12:45:33;;;;;;;4.05;2.60;;;;;;;;;;4985573;28;20033;-73
2021/08/24 12:48:17;;;;;;;4.25;2.55;;;;;;;;;;4977308;28;20033;-73
2021/08/24 12:50:49;;;;;;;2.72;1.90;;;;;;;;;;4982614;28;20129;-73
2021/08/24 12:53:31;;;;;;;3.78;2.10;;;;;;;;;;4980646;28;20023;-73
2021/08/24 12:55:58;;;;;;;4.05;2.08;;;;;;;;;;4974839;28;20030;-74
2021/08/24 12:58:32;;;;;;;3.40;1.95;;;;;;;;;;4978120;28;20042;-72
2021/08/24 13:01:12;;;;;;;3.63;2.13;;;;;;;;;;4976344;28;20161;-76
2021/08/24 13:03:59;;;;;;;5.50;2.83;;;;;;;;;;4985491;28;20476;-74
2021/08/24 13:06:26;;;;;;;3.92;2.15;;;;;;;;;;4976517;28;20054;-73
2021/08/24 13:08:54;;;;;;;3.83;2.08;;;;;;;;;;4984315;28;20057;-73
2021/08/24 13:11:26;;;;;;;4.18;2.17;;;;;;;;;;4984767;28;20096;-71
2021/08/24 13:14:04;;;;;;;2.20;1.80;;;;;;;;;;4985181;28;20033;-73
2021/08/24 13:16:36;;;;;;;5.07;2.75;;;;;;;;;;4987210;28;20022;-72
2021/08/24 13:19:04;;;;;;;6.53;2.50;;;;;;;;;;4978960;28;20030;-73
2021/08/24 13:21:32;;;;;;;2.92;2.17;;;;;;;;;;4984860;28;20035;-74
2021/08/24 13:24:00;;;;;;;3.22;2.28;;;;;;;;;;4982429;28;20041;-75
2021/08/24 13:26:30;;;;;;;4.20;2.63;;;;;;;;;;4985307;28;20473;-76
2021/08/24 13:28:57;;;;;;;4.13;2.58;;;;;;;;;;4987588;28;20030;-71
2021/08/24 13:31:40;;;;;;;3.88;2.95;;;;;;;;;;4990722;28;20084;-72
2021/08/24 13:34:18;;;;;;;3.70;2.30;;;;;;;;;;4989457;28;20049;-71
2021/08/24 13:36:46;;;;;;;5.85;2.55;;;;;;;;;;4983551;28;20504;-72
2021/08/24 13:39:13;;;;;;;5.55;2.35;;;;;;;;;;4989335;28;20532;-71
2021/08/24 13:41:41;;;;;;;4.03;2.70;;;;;;;;;;4983866;28;20034;-74
2021/08/24 13:44:18;;;;;;;3.08;2.40;;;;;;;;;;4979812;28;20030;-71
2021/08/24 13:46:45;;;;;;;7.70;2.80;;;;;;;;;;4978417;28;20035;-72
2021/08/24 13:49:17;;;;;;;3.65;2.33;;;;;;;;;;4988145;28;20042;-73
2021/08/24 13:51:46;;;;;;;4.32;2.72;;;;;;;;;;4987073;28;20034;-73
2021/08/24 13:54:14;;;;;;;3.83;2.50;;;;;;;;;;4987219;28;20069;-73
2021/08/24 13:56:40;;;;;;;4.78;2.60;;;;;;;;;;4988486;28;20476;-72
2021/08/24 13:59:07;;;;;;;6.05;2.65;;;;;;;;;;4988882;28;20441;-72
2021/08/24 14:01:35;;;;;;;5.85;2.50;;;;;;;;;;4989536;28;20484;-72
2021/08/24 14:04:09;;;;;;;3.67;2.47;;;;;;;;;;4987548;28;20054;-72
2021/08/24 14:06:37;;;;;;;4.43;2.53;;;;;;;;;;4989673;28;20060;-72
2021/08/24 14:09:21;;;;;;;6.43;3.92;;;;;;;;;;4986830;28;20030;-72
2021/08/24 14:11:49;;;;;;;11.43;5.68;;;;;;;;;;4989097;28;20039;-71
2021/08/24 14:14:28;;;;;;;6.50;3.60;;;;;;;;;;4974231;28;20085;-73
2021/08/24 14:16:54;;;;;;;5.57;3.30;;;;;;;;;;4986642;28;20022;-73
2021/08/24 14:19:28;;;;;;;4.38;2.78;;;;;;;;;;4988496;28;20146;-73
2021/08/24 14:21:54;;;;;;;3.35;2.40;;;;;;;;;;4984098;28;20049;-72
2021/08/24 14:24:20;;;;;;;4.20;2.22;;;;;;;;;;4987604;28;20137;-72
2021/08/24 14:26:49;;;;;;;3.88;3.10;;;;;;;;;;4983987;28;20029;-72
2021/08/24 14:29:19;;;;;;;4.57;2.67;;;;;;;;;;4983992;28;20062;-72
2021/08/24 14:31:45;;;;;;;;;;;;;;;;;;4980712;28;20022;-72
2021/08/24 14:34:17;;;;;;;4.10;2.65;;;;;;;;;;4991314;28;19920;-72
2021/08/24 14:36:44;;;;;;;5.85;2.60;;;;;;;;;;4987532;28;20405;-73
2021/08/24 14:39:18;;;;;;;5.50;3.13;;;;;;;;;;4975810;28;20476;-73
2021/08/24 14:42:02;;;;;;;4.63;3.35;;;;;;;;;;4991182;28;20025;-74
2021/08/24 14:44:30;;;;;;;4.22;2.22;;;;;;;;;;4987104;28;20022;-73
2021/08/24 14:47:05;;;;;;;5.07;2.85;;;;;;;;;;4991541;28;20121;-74
2021/08/24 14:49:47;;;;;;;4.43;2.60;;;;;;;;;;4984385;28;20053;-74
2021/08/24 14:52:24;;;;;;;4.03;2.70;;;;;;;;;;4971804;28;20066;-73
2021/08/24 14:54:51;;;;;;;3.78;2.00;;;;;;;;;;4976021;28;20038;-73
2021/08/24 14:57:21;;;;;;;3.65;2.25;;;;;;;;;;4981558;28;20112;-74
2021/08/24 14:59:48;;;;;;;3.53;2.13;;;;;;;;;;4981609;28;20038;-75
2021/08/24 15:02:14;;;;;;;3.22;2.00;;;;;;;;;;4980709;28;20038;-75